sensor_id;sensor_type;location;lat;lon;timestamp;temperature;humidity
12315;DHT22;23886;46.614;14.276;2023-02-07T00:00:23;-7.70;99.90
12315;DHT22;23886;46.614;14.276;2023-02-07T00:02:52;-7.80;99.90
12315;DHT22;23886;46.614;14.276;2023-02-07T00:05:20;-7.80;99.90
12315;DHT22;23886;46.614;14.276;2023-02-07T00:07:47;-7.90;99.90
12315;DHT22;23886;46.614;14.276;2023-02-07T00:10:15;-7.90;99.90
12315;DHT22;23886;46.614;14.276;2023-02-07T00:12:42;-8.00;99.90
12315;DHT22;23886;46.614;14.276;2023-02-07T00:15:09;-7.90;99.90
12315;DHT22;23886;46.614;14.276;2023-02-07T00:17:36;-7.90;99.90
12315;DHT22;23886;46.614;14.276;2023-02-07T00:20:05;-7.70;99.90
12315;DHT22;23886;46.614;14.276;2023-02-07T00:22:32;-7.70;99.90
12315;DHT22;23886;46.614;14.276;2023-02-07T00:24:59;-7.80;99.90
12315;DHT22;23886;46.614;14.276;2023-02-07T00:27:26;-7.90;99.90
12315;DHT22;23886;46.614;14.276;2023-02-07T00:29:54;-7.90;99.90
12315;DHT22;23886;46.614;14.276;2023-02-07T00:32:21;-8.00;99.90
12315;DHT22;23886;46.614;14.276;2023-02-07T00:34:48;-7.90;99.90
12315;DHT22;23886;46.614;14.276;2023-02-07T00:37:17;-8.00;99.90
12315;DHT22;23886;46.614;14.276;2023-02-07T00:39:44;-8.10;99.90
12315;DHT22;23886;46.614;14.276;2023-02-07T00:42:11;-8.00;99.90
12315;DHT22;23886;46.614;14.276;2023-02-07T00:44:38;-8.10;99.90
12315;DHT22;23886;46.614;14.276;2023-02-07T00:47:05;-8.10;99.90
12315;DHT22;23886;46.614;14.276;2023-02-07T00:49:32;-8.10;99.90
12315;DHT22;23886;46.614;14.276;2023-02-07T00:51:59;-8.10;99.90
12315;DHT22;23886;46.614;14.276;2023-02-07T00:54:27;-8.10;99.90
12315;DHT22;23886;46.614;14.276;2023-02-07T00:56:54;-8.00;99.90
12315;DHT22;23886;46.614;14.276;2023-02-07T00:59:21;-8.00;99.90
12315;DHT22;23886;46.614;14.276;2023-02-07T01:01:48;-8.00;99.90
12315;DHT22;23886;46.614;14.276;2023-02-07T01:04:15;-8.10;99.90
12315;DHT22;23886;46.614;14.276;2023-02-07T01:06:42;-8.20;99.90
12315;DHT22;23886;46.614;14.276;2023-02-07T01:09:09;-8.20;99.90
12315;DHT22;23886;46.614;14.276;2023-02-07T01:11:38;-8.10;99.90
12315;DHT22;23886;46.614;14.276;2023-02-07T01:14:05;-8.10;99.90
12315;DHT22;23886;46.614;14.276;2023-02-07T01:16:35;-8.00;99.90
12315;DHT22;23886;46.614;14.276;2023-02-07T01:19:04;-8.10;99.90
12315;DHT22;23886;46.614;14.276;2023-02-07T01:21:31;-8.20;99.90
12315;DHT22;23886;46.614;14.276;2023-02-07T01:23:58;-8.20;99.90
12315;DHT22;23886;46.614;14.276;2023-02-07T01:26:26;-8.20;99.90
12315;DHT22;23886;46.614;14.276;2023-02-07T01:28:54;-8.30;99.90
12315;DHT22;23886;46.614;14.276;2023-02-07T01:31:22;-8.30;99.90
12315;DHT22;23886;46.614;14.276;2023-02-07T01:33:52;-8.20;99.90
12315;DHT22;23886;46.614;14.276;2023-02-07T01:36:20;-8.10;99.90
12315;DHT22;23886;46.614;14.276;2023-02-07T01:38:47;-8.10;99.90
12315;DHT22;23886;46.614;14.276;2023-02-07T01:41:14;-8.30;99.90
12315;DHT22;23886;46.614;14.276;2023-02-07T01:44:03;-8.40;99.90
12315;DHT22;23886;46.614;14.276;2023-02-07T01:46:31;-8.30;99.90
12315;DHT22;23886;46.614;14.276;2023-02-07T01:49:04;-8.10;99.90
12315;DHT22;23886;46.614;14.276;2023-02-07T01:51:32;-8.30;99.90
12315;DHT22;23886;46.614;14.276;2023-02-07T01:54:03;-8.50;99.90
12315;DHT22;23886;46.614;14.276;2023-02-07T01:56:32;-8.50;99.90
12315;DHT22;23886;46.614;14.276;2023-02-07T01:59:03;-8.50;99.90
12315;DHT22;23886;46.614;14.276;2023-02-07T02:01:31;-8.60;99.90
12315;DHT22;23886;46.614;14.276;2023-02-07T02:03:59;-8.70;99.90
12315;DHT22;23886;46.614;14.276;2023-02-07T02:06:28;-8.80;99.90
12315;DHT22;23886;46.614;14.276;2023-02-07T02:08:59;-8.70;99.90
12315;DHT22;23886;46.614;14.276;2023-02-07T02:11:50;-8.50;99.90
12315;DHT22;23886;46.614;14.276;2023-02-07T02:17:21;-8.50;99.90
12315;DHT22;23886;46.614;14.276;2023-02-07T02:20:17;-8.70;99.90
12315;DHT22;23886;46.614;14.276;2023-02-07T02:23:01;-8.80;99.90
12315;DHT22;23886;46.614;14.276;2023-02-07T02:31:49;-8.80;99.90
12315;DHT22;23886;46.614;14.276;2023-02-07T02:34:26;-8.80;99.90
12315;DHT22;23886;46.614;14.276;2023-02-07T02:37:00;-8.80;99.90
12315;DHT22;23886;46.614;14.276;2023-02-07T02:39:33;-8.80;99.90
12315;DHT22;23886;46.614;14.276;2023-02-07T02:42:06;-8.60;99.90
12315;DHT22;23886;46.614;14.276;2023-02-07T02:44:39;-8.40;99.90
12315;DHT22;23886;46.614;14.276;2023-02-07T02:47:09;-8.50;99.90
12315;DHT22;23886;46.614;14.276;2023-02-07T02:49:38;-8.80;99.90
12315;DHT22;23886;46.614;14.276;2023-02-07T02:52:07;-8.90;99.90
12315;DHT22;23886;46.614;14.276;2023-02-07T02:54:35;-8.90;99.90
12315;DHT22;23886;46.614;14.276;2023-02-07T02:57:15;-9.00;99.90
12315;DHT22;23886;46.614;14.276;2023-02-07T03:00:11;-9.10;99.90
12315;DHT22;23886;46.614;14.276;2023-02-07T03:02:47;-9.00;99.90
12315;DHT22;23886;46.614;14.276;2023-02-07T03:05:31;-9.00;99.90
12315;DHT22;23886;46.614;14.276;2023-02-07T03:08:06;-9.00;99.90
12315;DHT22;23886;46.614;14.276;2023-02-07T03:10:42;-9.20;99.90
12315;DHT22;23886;46.614;14.276;2023-02-07T03:13:15;-9.00;99.90
12315;DHT22;23886;46.614;14.276;2023-02-07T03:15:57;-9.00;99.90
12315;DHT22;23886;46.614;14.276;2023-02-07T03:18:30;-9.00;99.90
12315;DHT22;23886;46.614;14.276;2023-02-07T03:21:06;-9.10;99.90
12315;DHT22;23886;46.614;14.276;2023-02-07T03:23:37;-9.20;99.90
12315;DHT22;23886;46.614;14.276;2023-02-07T03:26:05;-9.30;99.90
12315;DHT22;23886;46.614;14.276;2023-02-07T03:28:35;-9.10;99.90
12315;DHT22;23886;46.614;14.276;2023-02-07T03:31:04;-9.00;99.90
12315;DHT22;23886;46.614;14.276;2023-02-07T03:33:33;-9.20;99.90
12315;DHT22;23886;46.614;14.276;2023-02-07T03:36:07;-9.00;99.90
12315;DHT22;23886;46.614;14.276;2023-02-07T03:38:35;-9.10;99.90
12315;DHT22;23886;46.614;14.276;2023-02-07T03:41:07;-9.10;99.90
12315;DHT22;23886;46.614;14.276;2023-02-07T03:43:37;-9.30;99.90
12315;DHT22;23886;46.614;14.276;2023-02-07T03:46:07;-9.40;99.90
12315;DHT22;23886;46.614;14.276;2023-02-07T03:48:34;-9.50;99.90
12315;DHT22;23886;46.614;14.276;2023-02-07T03:51:03;-9.60;99.90
12315;DHT22;23886;46.614;14.276;2023-02-07T03:53:30;-9.60;99.90
12315;DHT22;23886;46.614;14.276;2023-02-07T03:55:57;-9.40;99.90
12315;DHT22;23886;46.614;14.276;2023-02-07T03:58:24;-9.30;99.90
12315;DHT22;23886;46.614;14.276;2023-02-07T04:00:51;-9.40;99.90
12315;DHT22;23886;46.614;14.276;2023-02-07T04:03:18;-9.40;99.90
12315;DHT22;23886;46.614;14.276;2023-02-07T04:05:45;-9.50;99.90
12315;DHT22;23886;46.614;14.276;2023-02-07T04:08:15;-9.40;99.90
12315;DHT22;23886;46.614;14.276;2023-02-07T04:10:42;-9.40;99.90
12315;DHT22;23886;46.614;14.276;2023-02-07T04:13:09;-9.30;99.90
12315;DHT22;23886;46.614;14.276;2023-02-07T04:15:36;-9.30;99.90
12315;DHT22;23886;46.614;14.276;2023-02-07T04:18:03;-9.30;99.90
12315;DHT22;23886;46.614;14.276;2023-02-07T04:20:30;-9.30;99.90
12315;DHT22;23886;46.614;14.276;2023-02-07T04:22:57;-9.50;99.90
12315;DHT22;23886;46.614;14.276;2023-02-07T04:25:26;-9.60;99.90
12315;DHT22;23886;46.614;14.276;2023-02-07T04:27:53;-9.60;99.90
12315;DHT22;23886;46.614;14.276;2023-02-07T04:30:20;-9.60;99.90
12315;DHT22;23886;46.614;14.276;2023-02-07T04:32:47;-9.50;99.90
12315;DHT22;23886;46.614;14.276;2023-02-07T04:35:14;-9.40;99.90
12315;DHT22;23886;46.614;14.276;2023-02-07T04:37:41;-9.30;99.90
12315;DHT22;23886;46.614;14.276;2023-02-07T04:40:09;-9.40;99.90
12315;DHT22;23886;46.614;14.276;2023-02-07T04:42:37;-9.50;99.90
12315;DHT22;23886;46.614;14.276;2023-02-07T04:45:04;-9.50;99.90
12315;DHT22;23886;46.614;14.276;2023-02-07T04:47:31;-9.70;99.90
12315;DHT22;23886;46.614;14.276;2023-02-07T04:49:58;-9.70;99.90
12315;DHT22;23886;46.614;14.276;2023-02-07T04:52:25;-9.80;99.90
12315;DHT22;23886;46.614;14.276;2023-02-07T04:54:52;-9.80;99.90
12315;DHT22;23886;46.614;14.276;2023-02-07T04:57:19;-9.70;99.90
12315;DHT22;23886;46.614;14.276;2023-02-07T04:59:48;-9.90;99.90
12315;DHT22;23886;46.614;14.276;2023-02-07T05:02:15;-9.90;99.90
12315;DHT22;23886;46.614;14.276;2023-02-07T05:04:42;-9.90;99.90
12315;DHT22;23886;46.614;14.276;2023-02-07T05:07:08;-9.60;99.90
12315;DHT22;23886;46.614;14.276;2023-02-07T05:09:35;-9.60;99.90
12315;DHT22;23886;46.614;14.276;2023-02-07T05:12:03;-9.60;99.90
12315;DHT22;23886;46.614;14.276;2023-02-07T05:14:30;-9.60;99.90
12315;DHT22;23886;46.614;14.276;2023-02-07T05:16:58;-9.50;99.90
12315;DHT22;23886;46.614;14.276;2023-02-07T05:19:25;-9.50;99.90
12315;DHT22;23886;46.614;14.276;2023-02-07T05:21:52;-9.40;99.90
12315;DHT22;23886;46.614;14.276;2023-02-07T05:24:19;-9.40;99.90
12315;DHT22;23886;46.614;14.276;2023-02-07T05:26:46;-9.40;99.90
12315;DHT22;23886;46.614;14.276;2023-02-07T05:29:13;-9.40;99.90
12315;DHT22;23886;46.614;14.276;2023-02-07T05:31:40;-9.50;99.90
12315;DHT22;23886;46.614;14.276;2023-02-07T05:34:26;-9.60;99.90
12315;DHT22;23886;46.614;14.276;2023-02-07T05:36:53;-9.90;99.90
12315;DHT22;23886;46.614;14.276;2023-02-07T05:39:20;-9.80;99.90
12315;DHT22;23886;46.614;14.276;2023-02-07T05:41:47;-9.90;99.90
12315;DHT22;23886;46.614;14.276;2023-02-07T05:44:14;-9.90;99.90
12315;DHT22;23886;46.614;14.276;2023-02-07T05:46:41;-9.70;99.90
12315;DHT22;23886;46.614;14.276;2023-02-07T05:49:08;-9.60;99.90
12315;DHT22;23886;46.614;14.276;2023-02-07T05:51:37;-9.80;99.90
12315;DHT22;23886;46.614;14.276;2023-02-07T05:54:04;-9.90;99.90
12315;DHT22;23886;46.614;14.276;2023-02-07T05:56:31;-9.70;99.90
12315;DHT22;23886;46.614;14.276;2023-02-07T05:58:58;-9.70;99.90
12315;DHT22;23886;46.614;14.276;2023-02-07T06:01:25;-9.60;99.90
12315;DHT22;23886;46.614;14.276;2023-02-07T06:03:52;-9.60;99.90
12315;DHT22;23886;46.614;14.276;2023-02-07T06:06:19;-9.50;99.90
12315;DHT22;23886;46.614;14.276;2023-02-07T06:08:47;-9.50;99.90
12315;DHT22;23886;46.614;14.276;2023-02-07T06:11:14;-9.50;99.90
12315;DHT22;23886;46.614;14.276;2023-02-07T06:13:41;-9.60;99.90
12315;DHT22;23886;46.614;14.276;2023-02-07T06:16:08;-9.50;99.90
12315;DHT22;23886;46.614;14.276;2023-02-07T06:18:35;-9.40;99.90
12315;DHT22;23886;46.614;14.276;2023-02-07T06:21:02;-9.40;99.90
12315;DHT22;23886;46.614;14.276;2023-02-07T06:23:29;-9.30;99.90
12315;DHT22;23886;46.614;14.276;2023-02-07T06:25:58;-9.60;99.90
12315;DHT22;23886;46.614;14.276;2023-02-07T06:28:25;-9.70;99.90
12315;DHT22;23886;46.614;14.276;2023-02-07T06:30:52;-9.60;99.90
12315;DHT22;23886;46.614;14.276;2023-02-07T06:33:19;-9.50;99.90
12315;DHT22;23886;46.614;14.276;2023-02-07T06:35:46;-9.30;99.90
12315;DHT22;23886;46.614;14.276;2023-02-07T06:38:13;-9.20;99.90
12315;DHT22;23886;46.614;14.276;2023-02-07T06:40:40;-9.00;99.90
12315;DHT22;23886;46.614;14.276;2023-02-07T06:43:09;-8.90;99.90
12315;DHT22;23886;46.614;14.276;2023-02-07T06:45:37;-8.80;99.90
12315;DHT22;23886;46.614;14.276;2023-02-07T06:48:04;-8.70;99.90
12315;DHT22;23886;46.614;14.276;2023-02-07T06:50:31;-8.60;99.90
12315;DHT22;23886;46.614;14.276;2023-02-07T06:52:58;-8.80;99.90
12315;DHT22;23886;46.614;14.276;2023-02-07T06:55:26;-8.70;99.90
12315;DHT22;23886;46.614;14.276;2023-02-07T06:57:53;-8.70;99.90
12315;DHT22;23886;46.614;14.276;2023-02-07T07:00:23;-8.60;99.90
12315;DHT22;23886;46.614;14.276;2023-02-07T07:02:50;-8.60;99.90
12315;DHT22;23886;46.614;14.276;2023-02-07T07:05:17;-8.70;99.90
12315;DHT22;23886;46.614;14.276;2023-02-07T07:07:44;-8.70;99.90
12315;DHT22;23886;46.614;14.276;2023-02-07T07:10:11;-8.60;99.90
12315;DHT22;23886;46.614;14.276;2023-02-07T07:12:38;-8.70;99.90
12315;DHT22;23886;46.614;14.276;2023-02-07T07:15:06;-8.80;99.90
12315;DHT22;23886;46.614;14.276;2023-02-07T07:17:34;-8.90;99.90
12315;DHT22;23886;46.614;14.276;2023-02-07T07:20:01;-8.80;99.90
12315;DHT22;23886;46.614;14.276;2023-02-07T07:22:28;-8.80;99.90
12315;DHT22;23886;46.614;14.276;2023-02-07T07:24:55;-8.60;99.90
12315;DHT22;23886;46.614;14.276;2023-02-07T07:27:22;-8.30;99.90
12315;DHT22;23886;46.614;14.276;2023-02-07T07:29:50;-8.30;99.90
12315;DHT22;23886;46.614;14.276;2023-02-07T07:32:17;-8.20;99.90
12315;DHT22;23886;46.614;14.276;2023-02-07T07:34:46;-8.10;99.90
12315;DHT22;23886;46.614;14.276;2023-02-07T07:37:14;-8.00;99.90
12315;DHT22;23886;46.614;14.276;2023-02-07T07:39:41;-7.60;99.90
12315;DHT22;23886;46.614;14.276;2023-02-07T07:42:09;-7.40;99.90
12315;DHT22;23886;46.614;14.276;2023-02-07T07:44:36;-7.40;99.90
12315;DHT22;23886;46.614;14.276;2023-02-07T07:47:03;-7.30;99.90
12315;DHT22;23886;46.614;14.276;2023-02-07T07:49:30;-7.20;99.90
12315;DHT22;23886;46.614;14.276;2023-02-07T07:51:58;-6.90;99.90
12315;DHT22;23886;46.614;14.276;2023-02-07T07:54:25;-6.70;99.90
12315;DHT22;23886;46.614;14.276;2023-02-07T07:56:52;-6.50;99.90
12315;DHT22;23886;46.614;14.276;2023-02-07T07:59:19;-6.40;99.90
12315;DHT22;23886;46.614;14.276;2023-02-07T08:01:46;-6.40;99.90
12315;DHT22;23886;46.614;14.276;2023-02-07T08:04:13;-6.30;99.90
12315;DHT22;23886;46.614;14.276;2023-02-07T08:06:40;-6.20;99.90
12315;DHT22;23886;46.614;14.276;2023-02-07T08:09:09;-6.00;99.90
12315;DHT22;23886;46.614;14.276;2023-02-07T08:11:36;-6.10;99.90
12315;DHT22;23886;46.614;14.276;2023-02-07T08:14:03;-6.00;99.90
12315;DHT22;23886;46.614;14.276;2023-02-07T08:16:30;-6.00;99.90
12315;DHT22;23886;46.614;14.276;2023-02-07T08:18:57;-5.90;99.90
12315;DHT22;23886;46.614;14.276;2023-02-07T08:21:24;-5.80;99.90
12315;DHT22;23886;46.614;14.276;2023-02-07T08:23:51;-6.10;99.90
12315;DHT22;23886;46.614;14.276;2023-02-07T08:26:20;-5.90;99.90
12315;DHT22;23886;46.614;14.276;2023-02-07T08:28:47;-6.20;99.90
12315;DHT22;23886;46.614;14.276;2023-02-07T08:31:17;-6.40;99.90
12315;DHT22;23886;46.614;14.276;2023-02-07T08:33:44;-6.20;99.90
12315;DHT22;23886;46.614;14.276;2023-02-07T08:36:11;-6.20;99.90
12315;DHT22;23886;46.614;14.276;2023-02-07T08:38:38;-6.10;99.90
12315;DHT22;23886;46.614;14.276;2023-02-07T08:41:05;-5.90;99.90
12315;DHT22;23886;46.614;14.276;2023-02-07T08:43:33;-5.80;99.90
12315;DHT22;23886;46.614;14.276;2023-02-07T08:46:00;-5.70;99.90
12315;DHT22;23886;46.614;14.276;2023-02-07T08:48:27;-5.50;99.90
12315;DHT22;23886;46.614;14.276;2023-02-07T08:50:54;-5.50;99.90
12315;DHT22;23886;46.614;14.276;2023-02-07T08:53:21;-5.50;99.90
12315;DHT22;23886;46.614;14.276;2023-02-07T08:55:49;-5.50;99.90
12315;DHT22;23886;46.614;14.276;2023-02-07T08:58:16;-5.50;99.90
12315;DHT22;23886;46.614;14.276;2023-02-07T09:00:45;-5.50;99.90
12315;DHT22;23886;46.614;14.276;2023-02-07T09:03:12;-5.50;99.90
12315;DHT22;23886;46.614;14.276;2023-02-07T09:05:40;-5.30;99.90
12315;DHT22;23886;46.614;14.276;2023-02-07T09:08:07;-5.00;99.90
12315;DHT22;23886;46.614;14.276;2023-02-07T09:10:34;-5.20;99.90
12315;DHT22;23886;46.614;14.276;2023-02-07T09:13:01;-5.20;99.90
12315;DHT22;23886;46.614;14.276;2023-02-07T09:15:28;-5.10;99.90
12315;DHT22;23886;46.614;14.276;2023-02-07T09:17:56;-5.20;99.90
12315;DHT22;23886;46.614;14.276;2023-02-07T09:20:23;-4.90;99.90
12315;DHT22;23886;46.614;14.276;2023-02-07T09:22:50;-4.60;99.90
12315;DHT22;23886;46.614;14.276;2023-02-07T09:25:36;-4.50;99.90
12315;DHT22;23886;46.614;14.276;2023-02-07T09:28:04;-4.40;99.90
12315;DHT22;23886;46.614;14.276;2023-02-07T09:30:31;-4.20;99.90
12315;DHT22;23886;46.614;14.276;2023-02-07T09:32:59;-4.20;99.90
12315;DHT22;23886;46.614;14.276;2023-02-07T09:35:27;-4.20;99.90
12315;DHT22;23886;46.614;14.276;2023-02-07T09:37:54;-4.00;99.90
12315;DHT22;23886;46.614;14.276;2023-02-07T09:40:22;-3.80;99.90
12315;DHT22;23886;46.614;14.276;2023-02-07T09:42:54;-3.90;99.90
12315;DHT22;23886;46.614;14.276;2023-02-07T09:45:25;-3.70;99.90
12315;DHT22;23886;46.614;14.276;2023-02-07T09:47:57;-3.40;99.90
12315;DHT22;23886;46.614;14.276;2023-02-07T09:50:29;-3.40;99.90
12315;DHT22;23886;46.614;14.276;2023-02-07T09:53:02;-3.20;99.90
12315;DHT22;23886;46.614;14.276;2023-02-07T09:55:42;-3.30;99.90
12315;DHT22;23886;46.614;14.276;2023-02-07T09:58:13;-3.60;99.90
12315;DHT22;23886;46.614;14.276;2023-02-07T10:00:41;-3.50;99.90
12315;DHT22;23886;46.614;14.276;2023-02-07T10:03:12;-3.30;99.90
12315;DHT22;23886;46.614;14.276;2023-02-07T10:05:44;-3.10;99.90
12315;DHT22;23886;46.614;14.276;2023-02-07T10:08:15;-3.20;99.90
12315;DHT22;23886;46.614;14.276;2023-02-07T10:10:45;-3.20;99.90
12315;DHT22;23886;46.614;14.276;2023-02-07T10:13:25;-3.10;99.90
12315;DHT22;23886;46.614;14.276;2023-02-07T10:16:07;-2.80;99.90
12315;DHT22;23886;46.614;14.276;2023-02-07T10:18:43;-2.60;99.90
12315;DHT22;23886;46.614;14.276;2023-02-07T10:21:19;-2.40;99.90
12315;DHT22;23886;46.614;14.276;2023-02-07T10:24:00;-2.30;99.90
12315;DHT22;23886;46.614;14.276;2023-02-07T10:26:35;-2.30;99.90
12315;DHT22;23886;46.614;14.276;2023-02-07T10:29:35;-2.10;99.90
12315;DHT22;23886;46.614;14.276;2023-02-07T10:32:12;-2.00;99.90
12315;DHT22;23886;46.614;14.276;2023-02-07T10:34:44;-2.00;99.90
12315;DHT22;23886;46.614;14.276;2023-02-07T10:37:18;-2.10;99.90
12315;DHT22;23886;46.614;14.276;2023-02-07T10:39:50;-2.10;99.90
12315;DHT22;23886;46.614;14.276;2023-02-07T10:42:18;-2.10;99.90
12315;DHT22;23886;46.614;14.276;2023-02-07T10:44:45;-1.90;99.90
12315;DHT22;23886;46.614;14.276;2023-02-07T10:47:15;-1.90;99.20
12315;DHT22;23886;46.614;14.276;2023-02-07T10:49:43;-1.60;99.20
12315;DHT22;23886;46.614;14.276;2023-02-07T10:52:28;-1.60;98.50
12315;DHT22;23886;46.614;14.276;2023-02-07T10:54:57;-1.40;99.00
12315;DHT22;23886;46.614;14.276;2023-02-07T10:57:24;-1.60;98.20
12315;DHT22;23886;46.614;14.276;2023-02-07T11:00:04;-1.70;98.60
12315;DHT22;23886;46.614;14.276;2023-02-07T11:05:36;-1.50;98.50
12315;DHT22;23886;46.614;14.276;2023-02-07T11:08:16;-1.50;98.70
12315;DHT22;23886;46.614;14.276;2023-02-07T11:10:46;-1.30;98.30
12315;DHT22;23886;46.614;14.276;2023-02-07T11:13:14;-1.10;98.70
12315;DHT22;23886;46.614;14.276;2023-02-07T11:15:51;-1.00;98.90
12315;DHT22;23886;46.614;14.276;2023-02-07T11:18:33;-0.90;98.40
12315;DHT22;23886;46.614;14.276;2023-02-07T11:21:17;-0.80;98.30
12315;DHT22;23886;46.614;14.276;2023-02-07T11:23:48;-0.70;98.20
12315;DHT22;23886;46.614;14.276;2023-02-07T11:26:16;-0.60;98.10
12315;DHT22;23886;46.614;14.276;2023-02-07T11:28:45;-0.60;98.00
12315;DHT22;23886;46.614;14.276;2023-02-07T11:31:14;-0.40;97.90
12315;DHT22;23886;46.614;14.276;2023-02-07T11:33:43;-0.30;97.90
12315;DHT22;23886;46.614;14.276;2023-02-07T11:36:19;-0.40;96.80
12315;DHT22;23886;46.614;14.276;2023-02-07T11:38:49;-0.60;96.70
12315;DHT22;23886;46.614;14.276;2023-02-07T11:41:20;-0.50;97.30
12315;DHT22;23886;46.614;14.276;2023-02-07T11:43:55;-0.30;96.30
12315;DHT22;23886;46.614;14.276;2023-02-07T11:46:28;-0.40;97.30
12315;DHT22;23886;46.614;14.276;2023-02-07T11:48:57;-0.40;97.20
12315;DHT22;23886;46.614;14.276;2023-02-07T11:51:24;0.00;96.80
12315;DHT22;23886;46.614;14.276;2023-02-07T11:53:56;0.20;96.10
12315;DHT22;23886;46.614;14.276;2023-02-07T11:56:28;0.10;96.10
12315;DHT22;23886;46.614;14.276;2023-02-07T11:58:57;0.20;95.10
12315;DHT22;23886;46.614;14.276;2023-02-07T12:01:26;0.60;94.70
12315;DHT22;23886;46.614;14.276;2023-02-07T12:03:56;0.50;94.30
12315;DHT22;23886;46.614;14.276;2023-02-07T12:06:30;0.20;94.90
12315;DHT22;23886;46.614;14.276;2023-02-07T12:09:00;0.50;94.30
12315;DHT22;23886;46.614;14.276;2023-02-07T12:11:34;0.50;94.00
12315;DHT22;23886;46.614;14.276;2023-02-07T12:14:07;0.30;93.80
12315;DHT22;23886;46.614;14.276;2023-02-07T12:16:40;0.30;93.30
12315;DHT22;23886;46.614;14.276;2023-02-07T12:19:14;0.40;93.30
12315;DHT22;23886;46.614;14.276;2023-02-07T12:21:52;0.60;93.00
12315;DHT22;23886;46.614;14.276;2023-02-07T12:24:25;0.80;92.80
12315;DHT22;23886;46.614;14.276;2023-02-07T12:26:57;0.60;93.00
12315;DHT22;23886;46.614;14.276;2023-02-07T12:29:36;0.60;92.30
12315;DHT22;23886;46.614;14.276;2023-02-07T12:32:13;0.80;91.90
12315;DHT22;23886;46.614;14.276;2023-02-07T12:34:53;0.50;92.20
12315;DHT22;23886;46.614;14.276;2023-02-07T12:37:27;1.00;92.80
12315;DHT22;23886;46.614;14.276;2023-02-07T12:40:02;1.20;92.20
12315;DHT22;23886;46.614;14.276;2023-02-07T12:42:36;1.70;92.00
12315;DHT22;23886;46.614;14.276;2023-02-07T12:45:05;1.50;91.80
12315;DHT22;23886;46.614;14.276;2023-02-07T12:47:41;1.80;91.70
12315;DHT22;23886;46.614;14.276;2023-02-07T12:50:22;1.80;92.00
12315;DHT22;23886;46.614;14.276;2023-02-07T12:53:00;1.80;92.80
12315;DHT22;23886;46.614;14.276;2023-02-07T12:55:42;1.70;92.30
12315;DHT22;23886;46.614;14.276;2023-02-07T12:58:24;1.80;92.40
12315;DHT22;23886;46.614;14.276;2023-02-07T13:00:59;1.60;92.20
12315;DHT22;23886;46.614;14.276;2023-02-07T13:03:43;1.40;93.40
12315;DHT22;23886;46.614;14.276;2023-02-07T13:06:21;1.20;93.80
12315;DHT22;23886;46.614;14.276;2023-02-07T13:08:56;1.20;94.00
12315;DHT22;23886;46.614;14.276;2023-02-07T13:11:34;1.20;93.70
12315;DHT22;23886;46.614;14.276;2023-02-07T13:14:16;1.10;93.30
12315;DHT22;23886;46.614;14.276;2023-02-07T13:16:49;0.80;93.60
12315;DHT22;23886;46.614;14.276;2023-02-07T13:19:25;0.80;93.80
12315;DHT22;23886;46.614;14.276;2023-02-07T13:21:57;1.20;94.10
12315;DHT22;23886;46.614;14.276;2023-02-07T13:24:29;1.50;93.50
12315;DHT22;23886;46.614;14.276;2023-02-07T13:27:02;1.30;93.50
12315;DHT22;23886;46.614;14.276;2023-02-07T13:29:31;1.80;93.30
12315;DHT22;23886;46.614;14.276;2023-02-07T13:32:02;1.50;92.70
12315;DHT22;23886;46.614;14.276;2023-02-07T13:34:43;1.30;93.10
12315;DHT22;23886;46.614;14.276;2023-02-07T13:37:13;1.40;93.20
12315;DHT22;23886;46.614;14.276;2023-02-07T13:39:47;1.30;93.00
12315;DHT22;23886;46.614;14.276;2023-02-07T13:42:27;1.20;93.60
12315;DHT22;23886;46.614;14.276;2023-02-07T13:45:03;1.20;93.90
12315;DHT22;23886;46.614;14.276;2023-02-07T13:47:43;1.40;93.80
12315;DHT22;23886;46.614;14.276;2023-02-07T13:50:27;1.30;93.10
12315;DHT22;23886;46.614;14.276;2023-02-07T13:53:04;1.30;92.40
12315;DHT22;23886;46.614;14.276;2023-02-07T13:55:34;1.60;93.00
12315;DHT22;23886;46.614;14.276;2023-02-07T13:58:04;2.20;91.90
12315;DHT22;23886;46.614;14.276;2023-02-07T14:01:06;2.70;91.60
12315;DHT22;23886;46.614;14.276;2023-02-07T14:03:35;3.00;91.40
12315;DHT22;23886;46.614;14.276;2023-02-07T14:06:26;3.10;91.20
12315;DHT22;23886;46.614;14.276;2023-02-07T14:08:59;3.30;91.10
12315;DHT22;23886;46.614;14.276;2023-02-07T14:11:34;3.80;89.10
12315;DHT22;23886;46.614;14.276;2023-02-07T14:14:12;4.30;89.40
12315;DHT22;23886;46.614;14.276;2023-02-07T14:16:47;4.90;89.30
12315;DHT22;23886;46.614;14.276;2023-02-07T14:19:14;4.60;88.20
12315;DHT22;23886;46.614;14.276;2023-02-07T14:21:43;4.60;89.50
12315;DHT22;23886;46.614;14.276;2023-02-07T14:24:31;4.80;89.10
12315;DHT22;23886;46.614;14.276;2023-02-07T14:27:03;4.70;87.60
12315;DHT22;23886;46.614;14.276;2023-02-07T14:30:15;5.00;90.10
12315;DHT22;23886;46.614;14.276;2023-02-07T14:35:35;6.50;88.20
12315;DHT22;23886;46.614;14.276;2023-02-07T14:38:09;7.70;85.10
12315;DHT22;23886;46.614;14.276;2023-02-07T14:40:53;6.10;82.90
12315;DHT22;23886;46.614;14.276;2023-02-07T14:43:33;6.70;83.50
12315;DHT22;23886;46.614;14.276;2023-02-07T14:46:09;6.00;81.20
12315;DHT22;23886;46.614;14.276;2023-02-07T14:48:47;5.40;85.50
12315;DHT22;23886;46.614;14.276;2023-02-07T14:51:18;7.20;86.80
12315;DHT22;23886;46.614;14.276;2023-02-07T14:53:55;9.20;79.60
12315;DHT22;23886;46.614;14.276;2023-02-07T14:56:34;10.40;75.40
12315;DHT22;23886;46.614;14.276;2023-02-07T14:59:05;7.60;76.40
12315;DHT22;23886;46.614;14.276;2023-02-07T15:01:33;6.40;76.70
12315;DHT22;23886;46.614;14.276;2023-02-07T15:04:01;5.80;78.10
12315;DHT22;23886;46.614;14.276;2023-02-07T15:06:34;5.70;78.10
12315;DHT22;23886;46.614;14.276;2023-02-07T15:09:01;6.40;78.60
12315;DHT22;23886;46.614;14.276;2023-02-07T15:11:29;6.90;75.70
12315;DHT22;23886;46.614;14.276;2023-02-07T15:13:58;6.80;78.80
12315;DHT22;23886;46.614;14.276;2023-02-07T15:16:29;8.00;73.90
12315;DHT22;23886;46.614;14.276;2023-02-07T15:18:59;7.30;74.60
12315;DHT22;23886;46.614;14.276;2023-02-07T15:21:31;7.20;76.20
12315;DHT22;23886;46.614;14.276;2023-02-07T15:24:03;6.80;75.10
12315;DHT22;23886;46.614;14.276;2023-02-07T15:26:31;6.20;75.40
12315;DHT22;23886;46.614;14.276;2023-02-07T15:29:02;5.90;79.50
12315;DHT22;23886;46.614;14.276;2023-02-07T15:31:36;5.50;78.70
12315;DHT22;23886;46.614;14.276;2023-02-07T15:34:12;6.30;76.00
12315;DHT22;23886;46.614;14.276;2023-02-07T15:36:41;6.90;73.20
12315;DHT22;23886;46.614;14.276;2023-02-07T15:39:14;5.10;73.20
12315;DHT22;23886;46.614;14.276;2023-02-07T15:41:44;3.40;78.90
12315;DHT22;23886;46.614;14.276;2023-02-07T15:44:20;2.40;82.70
12315;DHT22;23886;46.614;14.276;2023-02-07T15:46:50;1.40;83.40
12315;DHT22;23886;46.614;14.276;2023-02-07T15:49:27;0.50;90.10
12315;DHT22;23886;46.614;14.276;2023-02-07T15:52:00;-0.30;92.00
12315;DHT22;23886;46.614;14.276;2023-02-07T15:54:28;-0.70;93.10
12315;DHT22;23886;46.614;14.276;2023-02-07T15:56:58;-0.90;94.10